Time;durP1;ratioP1;P1;durP2;ratioP2;P2;SDS_P1;SDS_P2;PMS_P1;PMS_P2;Temp;Humidity;BMP_temperature;BMP_pressure;BME280_temperature;BME280_humidity;BME280_pressure;Samples;Min_cycle;Max_cycle;Signal;HPM_P1;HPM_P2
2022/08/22 00:00:22;;;;;;;;;4.33;4.00;;;;;21.71;51.58;101148.28;6281899;22;46762;-88
2022/08/22 00:03:10;;;;;;;;;7.00;5.00;;;;;21.70;51.75;101156.38;6280904;22;45440;-91
2022/08/22 00:06:14;;;;;;;;;3.00;3.00;;;;;21.65;51.80;101161.97;6281811;22;45237;-93
2022/08/22 00:09:02;;;;;;;;;6.00;4.33;;;;;21.60;51.95;101153.25;6283884;22;45466;-92
2022/08/22 00:11:51;;;;;;;;;5.67;3.33;;;;;21.59;52.00;101147.00;6258245;22;47161;-91
2022/08/22 00:14:27;;;;;;;;;3.00;3.00;;;;;21.58;51.72;101144.41;6256564;22;45347;-91
2022/08/22 00:17:21;;;;;;;;;4.00;4.00;;;;;21.45;51.92;101122.63;6283317;22;44775;-91
2022/08/22 00:19:54;;;;;;;;;4.00;4.00;;;;;21.46;51.54;101121.66;6283499;22;45434;-92
2022/08/22 00:22:50;;;;;;;;;4.00;4.00;;;;;21.53;51.43;101131.19;6282375;22;47285;-89
2022/08/22 00:25:49;;;;;;;;;6.00;4.67;;;;;21.50;51.68;101128.66;6256440;22;45766;-92
2022/08/22 00:28:21;;;;;;;;;4.00;3.00;;;;;21.45;51.36;101125.28;6283696;22;45232;-92
2022/08/22 00:31:08;;;;;;;;;3.00;3.00;;;;;21.42;51.58;101121.88;6260489;22;45297;-92
2022/08/22 00:33:49;;;;;;;;;4.00;4.00;;;;;21.36;51.63;101120.31;6286348;22;47298;-92
2022/08/22 00:36:56;;;;;;;;;5.00;3.67;;;;;21.36;51.96;101125.66;6289096;22;45397;-91
2022/08/22 00:39:52;;;;;;;;;7.00;4.00;;;;;21.22;51.57;101104.81;6258055;22;45105;-91
2022/08/22 00:42:51;;;;;;;;;4.00;4.00;;;;;21.32;51.52;101134.75;6253981;22;44845;-90
2022/08/22 00:45:47;;;;;;;;;4.00;3.00;;;;;21.30;51.60;101139.31;6283205;22;46860;-92
2022/08/22 00:48:59;;;;;;;;;5.67;5.00;;;;;21.31;51.85;101138.38;6286460;22;45381;-90
2022/08/22 00:51:53;;;;;;;;;4.33;3.67;;;;;21.23;51.36;101127.13;6257992;22;45129;-91
2022/08/22 00:54:19;;;;;;;;;3.33;3.00;;;;;21.28;51.43;101142.06;6284507;22;45477;-89
2022/08/22 00:57:12;;;;;;;;;4.00;4.00;;;;;21.27;51.69;101136.75;6292856;22;46913;-90
2022/08/22 01:00:11;;;;;;;;;5.33;3.67;;;;;21.25;51.73;101135.94;6287827;22;45271;-91
2022/08/22 01:03:04;;;;;;;;;4.00;4.00;;;;;21.23;51.78;101136.03;6284420;22;45168;-91
2022/08/22 01:05:58;;;;;;;;;6.00;4.33;;;;;21.22;51.87;101146.78;6285398;22;45480;-93
2022/08/22 01:08:45;;;;;;;;;4.33;3.67;;;;;21.22;51.66;101144.97;6285637;22;47619;-92
2022/08/22 01:11:48;;;;;;;;;3.00;3.00;;;;;21.22;51.86;101152.16;6285427;22;45151;-90
2022/08/22 01:14:28;;;;;;;;;5.00;4.67;;;;;21.23;51.96;101148.56;6285250;22;45452;-91
2022/08/22 01:17:01;;;;;;;;;4.00;3.33;;;;;21.21;52.03;101148.59;6259169;22;45587;-91
2022/08/22 01:19:43;;;;;;;;;4.00;4.00;;;;;21.18;51.85;101143.38;6259680;22;45181;-92
2022/08/22 01:22:47;;;;;;;;;5.00;4.33;;;;;21.15;52.06;101143.50;6260977;22;45174;-91
2022/08/22 01:26:06;;;;;;;;;3.33;3.33;;;;;21.03;51.91;101126.13;6285335;22;45299;-92
2022/08/22 01:28:54;;;;;;;;;6.00;5.00;;;;;21.07;51.98;101137.59;6286648;22;45195;-91
2022/08/22 01:31:29;;;;;;;;;2.00;2.00;;;;;21.05;52.30;101120.72;6285032;22;47105;-92
2022/08/22 01:34:19;;;;;;;;;5.33;4.33;;;;;21.03;52.07;101117.22;6284384;22;45161;-91
2022/08/22 01:36:48;;;;;;;;;4.33;4.33;;;;;21.01;52.02;101117.31;6284591;22;45179;-93
2022/08/22 01:39:56;;;;;;;;;4.33;3.67;;;;;20.98;51.97;101122.75;6285778;22;45156;-93
2022/08/22 01:42:40;;;;;;;;;5.00;4.00;;;;;20.93;51.90;101122.97;6287514;22;47057;-93
2022/08/22 01:45:34;;;;;;;;;3.00;3.00;;;;;20.87;51.90;101115.16;6284866;22;45346;-92
2022/08/22 01:48:23;;;;;;;;;2.33;2.00;;;;;20.83;51.81;101110.91;6285390;22;45437;-92
2022/08/22 01:51:10;;;;;;;;;5.33;4.00;;;;;20.71;52.00;101103.34;6258615;22;45195;-91
2022/08/22 01:53:49;;;;;;;;;3.00;3.00;;;;;20.75;52.01;101118.34;6285031;22;48755;-91
2022/08/22 01:56:18;;;;;;;;;3.00;3.00;;;;;20.74;51.98;101121.09;6284044;22;44872;-90
2022/08/22 01:59:02;;;;;;;;;5.00;3.67;;;;;20.67;52.49;101118.66;6285617;22;45335;-93
2022/08/22 02:01:43;;;;;;;;;3.33;2.67;;;;;20.69;52.41;101121.28;6259187;22;45317;-91
2022/08/22 02:04:21;;;;;;;;;2.33;2.33;;;;;20.66;51.99;101122.28;6283994;22;47754;-92
2022/08/22 02:06:58;;;;;;;;;3.00;3.00;;;;;20.63;51.93;101119.69;6258477;22;45464;-91
2022/08/22 02:10:01;;;;;;;;;4.00;3.00;;;;;20.61;52.15;101126.94;6284166;22;45211;-91
2022/08/22 02:12:35;;;;;;;;;3.33;2.67;;;;;20.60;52.47;101127.84;6284848;22;45354;-92
2022/08/22 02:15:13;;;;;;;;;4.33;3.33;;;;;20.50;52.09;101115.72;6258110;22;47303;-91
2022/08/22 02:18:05;;;;;;;;;3.33;3.00;;;;;20.44;52.14;101108.81;6258047;22;45349;-91
2022/08/22 02:20:52;;;;;;;;;3.00;3.00;;;;;20.49;52.09;101119.34;6222027;22;44978;-89
2022/08/22 02:23:42;;;;;;;;;6.33;3.00;;;;;20.44;52.21;101126.69;6284572;22;45369;-91
2022/08/22 02:26:40;;;;;;;;;5.33;3.67;;;;;20.38;52.21;101121.56;6285305;22;45648;-92
2022/08/22 02:29:21;;;;;;;;;3.00;3.00;;;;;20.32;52.67;101113.78;6284486;22;45888;-91
2022/08/22 02:32:05;;;;;;;;;5.67;5.00;;;;;20.28;52.85;101118.38;6284431;22;45199;-90
2022/08/22 02:34:42;;;;;;;;;4.00;4.00;;;;;20.25;52.60;101114.00;6262461;22;45191;-90
2022/08/22 02:37:14;;;;;;;;;6.00;3.67;;;;;20.24;52.69;101119.44;6269809;22;47013;-91
2022/08/22 02:40:16;;;;;;;;;2.67;2.67;;;;;20.16;52.61;101118.84;6295925;22;45176;-93
2022/08/22 02:42:42;;;;;;;;;4.33;4.33;;;;;20.20;52.75;101133.81;6239005;22;45394;-92
2022/08/22 02:45:10;;;;;;;;;2.33;2.33;;;;;20.17;52.52;101123.25;6283817;22;45235;-92
2022/08/22 02:47:58;;;;;;;;;4.00;3.33;;;;;20.17;52.86;101124.13;6285136;22;48553;-92
2022/08/22 02:50:46;;;;;;;;;3.33;3.00;;;;;20.17;53.25;101117.91;6284778;22;45233;-92
2022/08/22 02:53:36;;;;;;;;;2.67;2.67;;;;;20.15;52.58;101115.28;6289929;22;44792;-92
2022/08/22 02:56:26;;;;;;;;;3.33;3.00;;;;;20.21;52.88;101124.91;6286639;22;44758;-92
2022/08/22 02:58:56;;;;;;;;;4.33;3.67;;;;;20.16;52.91;101109.03;6285765;22;45577;-91
2022/08/22 03:01:28;;;;;;;;;3.67;3.67;;;;;20.18;53.12;101115.19;6284683;22;45175;-93
2022/08/22 03:04:31;;;;;;;;;3.67;3.67;;;;;20.22;52.56;101113.25;6285381;22;45358;-92
2022/08/22 03:07:21;;;;;;;;;3.67;2.33;;;;;20.19;53.05;101113.38;6284905;22;45448;-94
2022/08/22 03:09:56;;;;;;;;;7.67;5.33;;;;;20.16;52.78;101124.19;6284928;22;46286;-95
2022/08/22 03:13:08;;;;;;;;;3.67;3.67;;;;;20.12;53.15;101120.75;6258746;22;45090;-93
2022/08/22 03:15:57;;;;;;;;;4.67;4.67;;;;;20.11;52.66;101112.81;6284757;22;45376;-91
2022/08/22 03:18:28;;;;;;;;;5.00;4.00;;;;;20.12;53.21;101118.06;6284122;22;45200;-93
2022/08/22 03:21:22;;;;;;;;;3.00;2.67;;;;;20.13;53.19;101124.28;6257762;22;47227;-92
2022/08/22 03:24:15;;;;;;;;;4.67;2.67;;;;;20.07;53.00;101109.34;6258458;22;45225;-92
2022/08/22 03:27:01;;;;;;;;;5.67;3.33;;;;;20.16;53.20;101126.88;6246916;22;45350;-92
2022/08/22 03:29:34;;;;;;;;;3.00;3.00;;;;;20.04;53.01;101105.00;6285417;22;45362;-92
2022/08/22 03:32:13;;;;;;;;;4.00;3.00;;;;;20.15;52.96;101123.28;6286192;22;48706;-90
2022/08/22 03:34:53;;;;;;;;;2.33;2.00;;;;;20.10;53.40;101108.38;6296833;22;44788;-92
2022/08/22 03:37:39;;;;;;;;;3.00;3.00;;;;;20.15;53.19;101115.28;6288865;22;44696;-91
2022/08/22 03:40:37;;;;;;;;;2.33;2.33;;;;;20.16;53.11;101114.38;6262820;22;45156;-93
2022/08/22 03:43:21;;;;;;;;;4.00;3.00;;;;;20.17;53.46;101107.22;6267973;22;47067;-91
2022/08/22 03:46:03;;;;;;;;;4.00;4.00;;;;;20.16;53.15;101109.03;6292528;22;45598;-91
2022/08/22 03:49:00;;;;;;;;;3.00;3.00;;;;;20.17;53.04;101117.91;6259402;22;45257;-91
2022/08/22 03:51:32;;;;;;;;;4.00;4.00;;;;;20.17;53.74;101116.09;6266995;22;45345;-91
2022/08/22 03:54:19;;;;;;;;;5.33;4.67;;;;;20.14;53.44;101110.00;6267477;22;47045;-91
2022/08/22 03:57:06;;;;;;;;;5.67;3.67;;;;;20.11;53.32;101105.66;6291967;22;45251;-89
2022/08/22 04:00:10;;;;;;;;;3.33;3.33;;;;;20.11;53.61;101104.78;6296886;22;44692;-92
2022/08/22 04:02:48;;;;;;;;;5.00;5.00;;;;;20.09;53.42;101101.28;6297142;22;45365;-93
2022/08/22 04:05:26;;;;;;;;;4.67;4.33;;;;;20.05;54.06;101095.19;6269389;22;47979;-91
2022/08/22 04:08:16;;;;;;;;;3.00;3.00;;;;;20.03;53.70;101097.91;6269304;22;45168;-92
2022/08/22 04:10:55;;;;;;;;;4.00;4.00;;;;;19.99;54.27;101090.06;6296991;22;45345;-90
2022/08/22 04:13:26;;;;;;;;;4.00;4.00;;;;;19.98;54.37;101086.53;6269491;22;44879;-91
2022/08/22 04:15:54;;;;;;;;;4.33;3.00;;;;;20.00;54.35;101092.69;6261559;22;47264;-92
2022/08/22 04:18:51;;;;;;;;;3.67;3.67;;;;;19.85;54.34;101073.69;6261354;22;46032;-92
2022/08/22 04:21:16;;;;;;;;;5.00;5.00;;;;;19.94;54.54;101095.59;6284591;22;45183;-92
2022/08/22 04:24:17;;;;;;;;;4.33;3.33;;;;;19.87;54.71;101088.72;6258719;22;45164;-94
2022/08/22 04:27:09;;;;;;;;;4.33;4.00;;;;;19.87;54.21;101086.06;6196132;22;47250;-91
2022/08/22 04:29:41;;;;;;;;;4.00;4.00;;;;;19.87;54.62;101083.38;6246893;22;45430;-91
2022/08/22 04:32:28;;;;;;;;;1.00;0.33;;;;;19.79;54.53;101078.31;6195559;22;44645;-92
2022/08/22 04:35:16;;;;;;;;;4.00;4.00;;;;;19.79;54.63;101085.47;6199191;22;45582;-92
2022/08/22 04:37:55;;;;;;;;;4.00;4.00;;;;;19.82;54.51;101088.03;6248622;22;48216;-92
2022/08/22 04:40:33;;;;;;;;;5.33;5.00;;;;;19.85;54.67;101090.56;6248117;22;45348;-92
2022/08/22 04:43:18;;;;;;;;;4.33;3.33;;;;;19.85;55.14;101087.03;6248879;22;45232;-91
2022/08/22 04:46:13;;;;;;;;;3.33;3.33;;;;;19.72;54.85;101070.56;6247135;22;45209;-92
2022/08/22 04:48:54;;;;;;;;;5.33;4.00;;;;;19.84;54.94;101096.84;6197033;22;47812;-92
2022/08/22 04:51:27;;;;;;;;;6.00;6.00;;;;;19.75;54.92;101083.81;6247037;22;45759;-91
2022/08/22 04:54:14;;;;;;;;;6.00;4.00;;;;;19.88;55.03;101117.19;6247512;22;45327;-94
2022/08/22 04:56:58;;;;;;;;;5.67;4.67;;;;;19.89;55.31;101126.97;6253172;22;45278;-91
2022/08/22 04:59:25;;;;;;;;;6.00;4.00;;;;;19.76;55.11;101096.25;6284586;22;47899;-93
2022/08/22 05:02:04;;;;;;;;;5.67;4.33;;;;;19.89;55.08;101102.00;6281948;22;45363;-91
2022/08/22 05:04:39;;;;;;;;;5.33;4.33;;;;;19.78;54.62;101089.94;6228259;22;45328;-93
2022/08/22 05:07:14;;;;;;;;;6.00;6.00;;;;;19.91;54.94;101124.22;6254058;22;45384;-93
2022/08/22 05:09:46;;;;;;;;;6.00;4.00;;;;;19.85;54.64;101132.47;6228045;22;47216;-92
2022/08/22 05:12:19;;;;;;;;;6.33;4.33;;;;;19.89;54.48;101145.66;6228588;22;45169;-93
2022/08/22 05:14:54;;;;;;;;;2.33;2.00;;;;;19.83;54.68;101121.81;6254442;22;45266;-90
2022/08/22 05:17:23;;;;;;;;;5.33;4.00;;;;;19.80;54.60;101112.09;6253509;22;45542;-91
2022/08/22 05:19:52;;;;;;;;;4.00;3.00;;;;;19.90;54.81;101130.50;6253921;22;47251;-92
2022/08/22 05:22:30;;;;;;;;;5.67;5.67;;;;;19.92;54.64;101128.66;6227653;22;45420;-91
2022/08/22 05:25:00;;;;;;;;;5.67;5.00;;;;;19.91;54.56;101125.06;6253422;22;45177;-90
2022/08/22 05:27:34;;;;;;;;;6.33;5.00;;;;;19.93;54.63;101128.56;6228176;22;45300;-94
2022/08/22 05:30:15;;;;;;;;;4.67;4.00;;;;;19.98;54.45;101142.66;6227609;22;47058;-92
2022/08/22 05:32:57;;;;;;;;;4.00;4.00;;;;;19.94;54.08;101134.78;6250636;22;44783;-90
2022/08/22 05:35:36;;;;;;;;;7.00;5.00;;;;;20.01;54.45;101155.03;6254897;22;45384;-91
2022/08/22 05:38:07;;;;;;;;;5.67;4.67;;;;;20.02;54.39;101152.31;6228020;22;44763;-92
2022/08/22 05:40:36;;;;;;;;;7.00;6.00;;;;;20.02;54.24;101146.06;6253355;22;47065;-91
2022/08/22 05:43:04;;;;;;;;;6.33;4.67;;;;;20.08;54.38;101153.03;6252993;22;45403;-91
2022/08/22 05:45:32;;;;;;;;;4.00;4.00;;;;;20.08;54.29;101159.22;6252142;22;45470;-91
2022/08/22 05:48:07;;;;;;;;;7.67;5.00;;;;;20.08;54.01;101156.56;6252003;22;45354;-92
2022/08/22 05:50:51;;;;;;;;;1.33;1.00;;;;;20.07;54.21;101152.13;6225151;22;47034;-93
2022/08/22 05:53:34;;;;;;;;;7.67;5.33;;;;;19.97;54.38;101129.34;6251683;22;45421;-93
2022/08/22 05:56:02;;;;;;;;;6.67;5.00;;;;;19.96;54.32;101131.13;6225220;22;45583;-91
2022/08/22 05:58:56;;;;;;;;;4.00;4.00;;;;;20.13;54.08;101162.59;6224564;22;45521;-88
2022/08/22 06:01:24;;;;;;;;;3.33;3.33;;;;;20.14;54.23;101155.47;6222558;22;46694;-88
2022/08/22 06:04:16;;;;;;;;;5.00;5.00;;;;;20.12;54.15;101159.97;6252144;22;45185;-85
2022/08/22 06:06:55;;;;;;;;;8.67;8.67;;;;;20.13;54.02;101159.03;6285917;22;45300;-88
2022/08/22 06:09:39;;;;;;;;;5.00;4.67;;;;;20.09;54.29;101160.09;6263379;22;46242;-89
2022/08/22 06:12:09;;;;;;;;;5.67;5.67;;;;;20.07;53.88;101161.94;6258319;22;47056;-88
2022/08/22 06:14:50;;;;;;;;;6.00;5.50;;;;;20.03;54.35;101147.81;6255979;22;45367;-90
2022/08/22 06:17:15;;;;;;;;;8.00;7.00;;;;;20.12;54.06;101150.16;6255185;22;45304;-87
2022/08/22 06:19:48;;;;;;;;;4.33;4.33;;;;;20.13;54.06;101149.25;6283360;22;45152;-88
2022/08/22 06:22:20;;;;;;;;;4.00;4.00;;;;;20.18;53.86;101157.97;6278555;22;47425;-88
2022/08/22 06:24:48;;;;;;;;;5.33;5.33;;;;;20.21;54.30;101157.84;6279073;22;45393;-89
2022/08/22 06:27:19;;;;;;;;;6.67;5.67;;;;;20.17;54.17;101152.66;6276987;22;45512;-87
2022/08/22 06:29:52;;;;;;;;;6.67;5.67;;;;;20.19;53.68;101134.78;6276979;22;45275;-88
2022/08/22 06:32:28;;;;;;;;;6.33;5.33;;;;;20.28;53.80;101147.78;6278945;22;45565;-89
2022/08/22 06:35:02;;;;;;;;;5.00;5.00;;;;;20.46;53.63;101167.63;6252195;22;46199;-89
2022/08/22 06:37:43;;;;;;;;;5.67;5.33;;;;;20.44;53.77;101146.25;6277516;22;45235;-86
2022/08/22 06:40:12;;;;;;;;;7.00;6.00;;;;;20.49;54.02;101143.41;6279643;22;45287;-88
2022/08/22 06:42:42;;;;;;;;;7.00;7.00;;;;;20.57;54.04;101141.34;6278018;22;46854;-88
2022/08/22 06:45:12;;;;;;;;;5.33;5.33;;;;;20.80;53.57;101161.00;6250633;22;45272;-88
2022/08/22 06:47:44;;;;;;;;;9.33;6.00;;;;;20.97;53.48;101163.88;6277279;22;45227;-86
2022/08/22 06:50:34;;;;;;;;;;;;;;;;;;;;;
2022/08/22 06:53:14;;;;;;;;;5.67;5.67;;;;;21.26;52.60;101143.06;6277153;22;74991;-83
2022/08/22 06:56:04;;;;;;;;;5.00;5.00;;;;;21.41;52.71;101147.81;6276448;22;45263;-86
2022/08/22 06:59:12;;;;;;;;;5.00;3.00;;;;;21.47;52.59;101150.22;6242514;22;45380;-84
2022/08/22 07:01:55;;;;;;;;;6.00;5.33;;;;;21.56;52.26;101156.97;6278235;22;45317;-84
2022/08/22 07:04:34;;;;;;;;;7.33;6.67;;;;;21.61;52.30;101141.59;6219618;22;47791;-83
2022/08/22 07:07:07;;;;;;;;;7.00;6.33;;;;;21.67;52.37;101167.25;6219613;22;45917;-83
2022/08/22 07:09:41;;;;;;;;;9.33;8.00;;;;;21.70;52.39;101184.06;6219403;22;45321;-84
2022/08/22 07:12:17;;;;;;;;;12.75;12.25;;;;;21.73;52.01;101181.25;6219378;22;45424;-84
2022/08/22 07:15:37;;;;;;;;;4.00;4.00;;;;;21.76;51.92;101175.78;6245123;22;46319;-85
2022/08/22 07:18:17;;;;;;;;;5.67;5.67;;;;;21.80;51.47;101189.91;6215514;22;45762;-81
2022/08/22 07:20:49;;;;;;;;;3.67;3.67;;;;;21.77;51.58;101180.19;6246026;22;45399;-79
2022/08/22 07:23:30;;;;;;;;;6.33;6.00;;;;;21.79;51.54;101182.81;6245347;22;45186;-80
2022/08/22 07:26:13;;;;;;;;;4.00;4.00;;;;;21.79;51.69;101196.22;6219492;22;47319;-80
2022/08/22 07:28:59;;;;;;;;;5.33;5.33;;;;;21.76;51.56;101188.31;6247383;22;45389;-81
2022/08/22 07:31:36;;;;;;;;;6.33;6.00;;;;;21.78;51.17;101197.13;6247362;22;45233;-79
2022/08/22 07:34:26;;;;;;;;;6.00;5.00;;;;;21.78;51.42;101192.66;6247578;22;45120;-77
2022/08/22 07:37:05;;;;;;;;;8.00;6.33;;;;;21.74;51.34;101190.16;6247287;22;45423;-80
2022/08/22 07:39:43;;;;;;;;;4.00;3.67;;;;;21.78;51.42;101184.63;6219315;22;45575;-80
2022/08/22 07:42:23;;;;;;;;;5.33;5.33;;;;;21.86;51.41;101194.97;6247569;22;45281;-79
2022/08/22 07:45:08;;;;;;;;;6.33;6.00;;;;;21.94;51.10;101192.84;6246639;22;45366;-79
2022/08/22 07:48:02;;;;;;;;;6.33;6.00;;;;;22.01;51.59;101198.81;6246977;22;45463;-81
2022/08/22 07:50:33;;;;;;;;;7.67;6.00;;;;;22.07;50.87;101206.59;6247360;22;45325;-80
2022/08/22 07:53:12;;;;;;;;;6.00;6.00;;;;;22.10;50.98;101205.56;6245287;22;45125;-84
2022/08/22 07:55:41;;;;;;;;;6.00;6.00;;;;;22.12;50.93;101198.34;6219021;22;45351;-84
2022/08/22 07:58:10;;;;;;;;;8.00;8.00;;;;;22.18;50.65;101190.00;6246278;22;45221;-84
2022/08/22 08:00:48;;;;;;;;;9.00;8.00;;;;;22.27;50.78;101178.91;6246961;22;45418;-84
2022/08/22 08:03:14;;;;;;;;;5.00;4.00;;;;;22.32;50.59;101181.38;6239295;22;45356;-82
2022/08/22 08:05:43;;;;;;;;;10.00;8.00;;;;;22.41;50.81;101186.31;6277897;22;45357;-83
2022/08/22 08:08:24;;;;;;;;;9.00;9.00;;;;;22.48;50.84;101198.53;6275176;22;47603;-82
2022/08/22 08:10:53;;;;;;;;;7.00;5.00;;;;;22.53;51.06;101193.78;6276319;22;45441;-83
2022/08/22 08:13:32;;;;;;;;;7.00;5.00;;;;;22.59;50.07;101198.03;6275832;22;45184;-82
2022/08/22 08:15:59;;;;;;;;;5.00;5.00;;;;;22.60;50.10;101199.75;6249691;22;45374;-83
2022/08/22 08:18:29;;;;;;;;;6.00;6.00;;;;;22.63;49.92;101207.66;6275882;22;47881;-81
2022/08/22 08:21:02;;;;;;;;;5.33;5.00;;;;;22.67;49.90;101203.91;6275014;22;45231;-81
2022/08/22 08:23:34;;;;;;;;;6.00;6.00;;;;;22.71;49.84;101207.31;6275108;22;45535;-81
2022/08/22 08:26:18;;;;;;;;;6.00;6.00;;;;;22.75;49.92;101207.09;6277763;22;45258;-82
2022/08/22 08:28:48;;;;;;;;;5.33;4.33;;;;;22.79;50.01;101203.31;6277555;22;45389;-82
2022/08/22 08:31:20;;;;;;;;;6.33;3.33;;;;;22.85;49.69;101205.72;6275772;22;45276;-82
2022/08/22 08:33:50;;;;;;;;;5.67;4.33;;;;;22.93;49.66;101197.28;6250745;22;45189;-81
2022/08/22 08:36:35;;;;;;;;;6.33;5.00;;;;;22.97;49.67;101190.88;6278210;22;45397;-83
2022/08/22 08:39:31;;;;;;;;;5.67;4.00;;;;;22.99;49.41;101191.66;6275672;22;47048;-79
2022/08/22 08:42:05;;;;;;;;;5.00;4.00;;;;;23.03;49.41;101195.06;6278406;22;45485;-79
2022/08/22 08:44:36;;;;;;;;;6.00;6.00;;;;;23.03;49.44;101179.81;6275627;22;45378;-80
2022/08/22 08:47:23;;;;;;;;;5.00;3.67;;;;;23.04;49.62;101186.94;6276003;22;45383;-81
2022/08/22 08:50:10;;;;;;;;;3.67;3.67;;;;;23.02;49.53;101180.78;6275034;22;48709;-80
2022/08/22 08:53:00;;;;;;;;;4.00;4.00;;;;;23.01;49.54;101172.78;6273546;22;45921;-80
2022/08/22 08:55:58;;;;;;;;;5.00;5.00;;;;;23.01;48.94;101167.41;6274295;22;45336;-83
2022/08/22 08:58:30;;;;;;;;;4.00;3.33;;;;;23.01;49.47;101162.91;6275775;22;45349;-80
2022/08/22 09:00:59;;;;;;;;;5.33;5.00;;;;;23.06;49.54;101165.38;6273412;22;47297;-81
2022/08/22 09:03:43;;;;;;;;;4.33;4.33;;;;;23.11;49.42;101164.19;6276070;22;45203;-83
2022/08/22 09:06:24;;;;;;;;;6.00;5.33;;;;;23.15;49.24;101164.03;6276308;22;45145;-82
2022/08/22 09:09:06;;;;;;;;;5.33;4.67;;;;;23.16;49.00;101157.72;6275754;22;45304;-85
2022/08/22 09:12:04;;;;;;;;;6.00;5.00;;;;;23.20;48.92;101156.63;6277676;22;46759;-84
2022/08/22 09:14:42;;;;;;;;;7.00;6.00;;;;;23.24;48.22;101156.41;6278045;22;45350;-83
2022/08/22 09:17:34;;;;;;;;;3.00;3.00;;;;;23.25;48.71;101168.88;6275583;22;45211;-83
2022/08/22 09:20:11;;;;;;;;;4.67;3.67;;;;;23.26;48.58;101162.56;6278899;22;45307;-83
2022/08/22 09:23:22;;;;;;;;;6.67;5.00;;;;;23.28;47.83;101160.69;6281980;22;45169;-83
2022/08/22 09:25:58;;;;;;;;;3.00;3.00;;;;;23.32;48.04;101156.03;6255332;22;44823;-83
2022/08/22 09:28:38;;;;;;;;;6.00;5.67;;;;;23.39;47.94;101159.25;6257447;22;45379;-83
2022/08/22 09:31:30;;;;;;;;;4.67;4.67;;;;;23.47;47.86;101152.56;6281945;22;45346;-83
2022/08/22 09:34:07;;;;;;;;;4.00;4.00;;;;;23.54;48.04;101155.78;6287659;22;45133;-84
2022/08/22 09:36:57;;;;;;;;;3.67;3.67;;;;;23.60;47.49;101151.91;6267428;22;45684;-83
2022/08/22 09:39:27;;;;;;;;;4.33;3.00;;;;;23.69;47.87;101151.44;6280053;22;45394;-84
2022/08/22 09:42:05;;;;;;;;;2.67;2.67;;;;;23.73;47.26;101140.47;6289369;22;45233;-82
2022/08/22 09:45:28;;;;;;;;;4.67;3.67;;;;;23.78;47.53;101141.09;6292383;22;45261;-87
2022/08/22 09:48:27;;;;;;;;;3.00;3.00;;;;;23.84;47.16;101137.22;6170481;23;45275;-83
2022/08/22 09:50:59;;;;;;;;;4.00;3.33;;;;;23.89;47.35;101134.28;6191801;23;45360;-88
2022/08/22 09:53:33;;;;;;;;;4.00;2.67;;;;;23.90;46.88;101139.59;6276756;22;45282;-84
2022/08/22 09:56:36;;;;;;;;;2.67;2.67;;;;;23.89;46.41;101135.16;6279899;22;46582;-82
2022/08/22 09:59:21;;;;;;;;;3.00;2.33;;;;;23.92;46.19;101131.44;6278643;22;45291;-81
2022/08/22 10:01:58;;;;;;;;;5.33;4.33;;;;;23.97;46.34;101134.75;6277184;22;45378;-86
2022/08/22 10:04:54;;;;;;;;;2.00;2.00;;;;;24.03;46.54;101139.81;6252877;22;45618;-87
2022/08/22 10:07:39;;;;;;;;;3.67;3.00;;;;;24.10;45.85;101143.91;6258311;22;45314;-86
2022/08/22 10:10:13;;;;;;;;;3.00;3.00;;;;;24.16;45.99;101140.00;6253191;22;45173;-88
2022/08/22 10:12:51;;;;;;;;;3.00;3.00;;;;;24.20;45.67;101137.06;6224093;22;45130;-88
2022/08/22 10:15:28;;;;;;;;;2.00;2.00;;;;;24.27;45.70;101134.03;6220987;22;45476;-88
2022/08/22 10:18:13;;;;;;;;;5.67;4.00;;;;;24.34;45.49;101136.31;6250525;22;48276;-89
2022/08/22 10:20:57;;;;;;;;;3.00;3.00;;;;;24.44;45.64;101134.03;6248493;22;45491;-87
2022/08/22 10:23:35;;;;;;;;;3.67;3.67;;;;;24.55;45.46;101126.22;6249638;22;45367;-90
2022/08/22 10:26:36;;;;;;;;;4.33;3.33;;;;;24.78;45.42;101129.41;6222147;22;45347;-84
2022/08/22 10:29:09;;;;;;;;;5.00;3.33;;;;;24.97;44.41;101118.47;6204094;22;45577;-88
2022/08/22 10:32:03;;;;;;;;;3.00;2.00;;;;;25.13;44.43;101124.69;6223714;22;45182;-88
2022/08/22 10:34:35;;;;;;;;;1.00;1.00;;;;;25.21;44.22;101121.59;6223973;22;45225;-89
2022/08/22 10:37:16;;;;;;;;;3.00;2.33;;;;;25.29;43.81;101127.41;6224063;22;45882;-90
2022/08/22 10:39:55;;;;;;;;;2.00;2.00;;;;;25.36;43.24;101120.66;6221428;22;48452;-87
2022/08/22 10:42:30;;;;;;;;;2.67;2.67;;;;;25.41;43.53;101117.69;6247945;22;45190;-90
2022/08/22 10:45:21;;;;;;;;;3.00;3.00;;;;;25.47;43.62;101122.72;6221834;22;45344;-89
2022/08/22 10:47:49;;;;;;;;;2.67;2.67;;;;;25.53;43.23;101125.06;6223909;22;45424;-85
2022/08/22 10:50:22;;;;;;;;;3.00;2.00;;;;;25.61;43.02;101114.69;6223926;22;47576;-84
2022/08/22 10:53:28;;;;;;;;;5.67;4.67;;;;;25.71;43.11;101113.16;6220303;22;46119;-85
2022/08/22 10:55:43;;;;;;;;;3.67;3.67;;;;;25.85;42.77;101116.84;6248452;22;45271;-86
2022/08/22 10:58:14;;;;;;;;;4.00;2.67;;;;;26.00;42.94;101115.03;6250826;22;45327;-85
2022/08/22 11:00:52;;;;;;;;;8.67;7.00;;;;;26.12;42.51;101117.84;6246922;22;48015;-87
2022/08/22 11:03:39;;;;;;;;;2.33;2.00;;;;;26.22;42.20;101119.94;6242198;22;45383;-86
2022/08/22 11:06:44;;;;;;;;;4.00;4.00;;;;;26.28;42.28;101119.56;6279606;22;45286;-88
2022/08/22 11:09:30;;;;;;;;;4.33;4.33;;;;;26.26;42.03;101124.19;6277843;22;45292;-88
2022/08/22 11:12:18;;;;;;;;;2.00;1.67;;;;;26.30;42.04;101121.22;6280507;22;48522;-87
2022/08/22 11:15:17;;;;;;;;;1.67;1.67;;;;;26.45;42.41;101122.03;6250563;22;45462;-86
2022/08/22 11:18:19;;;;;;;;;2.00;2.00;;;;;26.65;41.73;101122.63;6250376;22;45307;-85
2022/08/22 11:20:58;;;;;;;;;4.67;3.33;;;;;26.84;41.34;101118.63;6154025;23;45203;-85
2022/08/22 11:23:26;;;;;;;;;1.00;1.00;;;;;26.99;41.31;101111.31;6262822;22;47217;-85
2022/08/22 11:26:00;;;;;;;;;3.33;3.00;;;;;27.13;41.18;101102.31;6277008;22;45788;-87
2022/08/22 11:28:51;;;;;;;;;4.67;3.00;;;;;27.33;40.56;101111.78;6277947;22;45252;-86
2022/08/22 11:31:31;;;;;;;;;3.00;3.00;;;;;27.53;40.17;101114.94;6279765;22;45405;-85
2022/08/22 11:34:11;;;;;;;;;2.00;2.00;;;;;27.75;40.35;101114.31;6276403;22;47918;-86
2022/08/22 11:37:02;;;;;;;;;2.00;2.00;;;;;27.98;39.87;101105.47;6278284;22;45413;-83
2022/08/22 11:39:40;;;;;;;;;3.33;3.00;;;;;28.12;38.81;101101.78;6242033;22;45325;-84
2022/08/22 11:42:13;;;;;;;;;2.67;2.00;;;;;28.18;38.92;101106.78;6278360;22;45363;-85
2022/08/22 11:44:53;;;;;;;;;1.00;1.00;;;;;28.29;39.16;101106.84;6278025;22;45192;-84
2022/08/22 11:47:24;;;;;;;;;2.00;2.00;;;;;28.32;38.71;101097.63;6278397;22;45752;-86
2022/08/22 11:50:13;;;;;;;;;3.33;3.00;;;;;28.43;39.04;101099.56;6276319;22;45239;-84
2022/08/22 11:53:13;;;;;;;;;3.00;3.00;;;;;28.46;38.50;101093.94;6279020;22;45212;-83
2022/08/22 11:55:58;;;;;;;;;4.67;2.00;;;;;28.32;38.93;101094.94;6249939;22;47245;-84
2022/08/22 11:58:44;;;;;;;;;3.00;2.67;;;;;28.13;38.46;101090.00;6251102;22;45196;-88
2022/08/22 12:01:32;;;;;;;;;3.33;3.00;;;;;28.12;39.16;101090.94;6278728;22;45156;-89
2022/08/22 12:04:16;;;;;;;;;2.67;2.00;;;;;28.33;39.27;101100.25;6276262;22;45982;-90
2022/08/22 12:06:56;;;;;;;;;0.33;0.33;;;;;28.40;38.13;101099.78;6279884;22;45392;-90
2022/08/22 12:09:54;;;;;;;;;0.33;0.33;;;;;28.50;38.26;101096.34;6250665;22;45206;-88
2022/08/22 12:12:25;;;;;;;;;1.00;1.00;;;;;28.40;37.96;101089.81;6278138;22;45268;-88
2022/08/22 12:15:19;;;;;;;;;1.00;1.00;;;;;28.19;37.77;101088.69;6250679;22;45209;-86
2022/08/22 12:18:03;;;;;;;;;1.67;1.67;;;;;28.03;38.63;101083.50;6276262;22;47393;-87
2022/08/22 12:20:32;;;;;;;;;1.00;1.00;;;;;27.95;38.64;101089.47;6278199;22;45247;-85
2022/08/22 12:23:11;;;;;;;;;1.00;1.00;;;;;27.92;39.25;101076.16;6251619;22;45190;-85
2022/08/22 12:26:04;;;;;;;;;2.67;2.00;;;;;28.00;39.00;101073.75;6279303;22;45342;-87
2022/08/22 12:29:01;;;;;;;;;3.00;1.00;;;;;28.15;39.09;101082.63;6278255;22;45491;-87
2022/08/22 12:31:53;;;;;;;;;1.00;1.00;;;;;28.31;38.63;101075.13;6275730;22;45263;-85
2022/08/22 12:34:39;;;;;;;;;1.00;1.00;;;;;28.32;38.64;101079.53;6250251;22;45335;-84
2022/08/22 12:37:26;;;;;;;;;0.00;0.00;;;;;28.26;38.59;101081.84;6278424;22;45358;-86